Wetterverlauf

Letzte Wetterlage 31.07.2014 11:05
Wetterdiagramm
Tabellarische Darstellung
Datum Temperatur Windchill Feuchte Luftdruck Windrichtung Windstärke Niederschlag
31.07.2014 11:15 21,4 °C 21,4 °C 71 % 1016,9 hPa 270 1.0 0,00 mm
31.07.2014 11:05 21,3 °C 21,3 °C 71 % 1016,9 hPa 225 1.0 0,00 mm
31.07.2014 10:55 20,8 °C 20,8 °C 73 % 1016,9 hPa 0 0.0 0,00 mm
31.07.2014 10:45 20,4 °C 20,4 °C 75 % 1016,9 hPa 270 0.3 0,00 mm
31.07.2014 10:35 20,0 °C 20,0 °C 77 % 1016,9 hPa 180 0.7 0,00 mm
31.07.2014 10:25 19,8 °C 19,8 °C 79 % 1017,0 hPa 180 1.0 0,00 mm
31.07.2014 10:15 19,3 °C 19,3 °C 80 % 1017,0 hPa 180 1.0 0,00 mm
31.07.2014 10:05 18,7 °C 18,7 °C 84 % 1017,0 hPa 315 0.7 0,00 mm
31.07.2014 09:55 18,4 °C 18,4 °C 83 % 1017,0 hPa 180 1.4 0,00 mm
31.07.2014 09:45 18,2 °C 18,2 °C 85 % 1017,0 hPa 315 0.3 0,00 mm
31.07.2014 09:35 18,2 °C 18,2 °C 86 % 1017,0 hPa 315 0.3 0,00 mm
31.07.2014 09:25 17,9 °C 17,9 °C 86 % 1017,0 hPa 315 0.0 0,00 mm
31.07.2014 09:15 17,7 °C 17,7 °C 87 % 1017,1 hPa 0 0.7 0,00 mm
31.07.2014 09:05 17,3 °C 17,3 °C 88 % 1017,1 hPa 45 0.0 0,00 mm
31.07.2014 08:55 17,1 °C 17,1 °C 89 % 1017,1 hPa 180 0.0 0,00 mm
31.07.2014 08:45 16,9 °C 16,9 °C 90 % 1017,1 hPa 270 0.0 0,00 mm
31.07.2014 08:35 16,7 °C 16,7 °C 92 % 1016,9 hPa 90 0.0 0,00 mm
31.07.2014 08:25 16,3 °C 16,3 °C 92 % 1016,8 hPa 0 0.3 0,00 mm
31.07.2014 08:15 16,0 °C 16,0 °C 93 % 1017,0 hPa 180 0.0 0,00 mm
31.07.2014 08:05 15,6 °C 15,6 °C 95 % 1017,1 hPa 225 0.7 0,00 mm
31.07.2014 07:55 15,5 °C 15,5 °C 95 % 1017,0 hPa 180 0.7 0,00 mm
31.07.2014 07:45 15,3 °C 15,3 °C 95 % 1016,9 hPa 315 0.7 0,00 mm
31.07.2014 07:35 15,0 °C 15,0 °C 96 % 1017,1 hPa 270 0.7 0,00 mm
31.07.2014 07:25 14,9 °C 14,9 °C 97 % 1017,0 hPa 270 1.0 0,00 mm
31.07.2014 07:15 14,6 °C 14,6 °C 97 % 1016,9 hPa 270 0.0 0,00 mm
Empfehlen Sie wetter.com
| Mehr
Neue Wetterwarnung

Neue Niederschlagsmeldung
Neue Meldung
Regen Liveticker
    sehr starker Regen/Gewitter
    starker Regen/Gewitter
    mäßiger bis starker Regen
    mäßiger Regen
    leichter bis mäßiger Regen
    kein Regen